sensor_id;sensor_type;location;lat;lon;timestamp;pressure;altitude;pressure_sealevel;temperature;humidity
72120;BME280;59993;53.052;18.576;2022-07-22T00:02:16;100734.00;;;22.86;65.61
72120;BME280;59993;53.052;18.576;2022-07-22T00:04:42;100728.53;;;22.79;66.69
72120;BME280;59993;53.052;18.576;2022-07-22T00:07:07;100732.59;;;22.75;67.02
72120;BME280;59993;53.052;18.576;2022-07-22T00:09:33;100738.56;;;22.70;67.34
72120;BME280;59993;53.052;18.576;2022-07-22T00:11:58;100741.63;;;22.67;67.79
72120;BME280;59993;53.052;18.576;2022-07-22T00:14:24;100745.63;;;22.57;68.54
72120;BME280;59993;53.052;18.576;2022-07-22T00:16:49;100743.94;;;22.56;69.02
72120;BME280;59993;53.052;18.576;2022-07-22T00:19:15;100746.47;;;22.57;68.80
72120;BME280;59993;53.052;18.576;2022-07-22T00:21:41;100747.66;;;22.54;69.32
72120;BME280;59993;53.052;18.576;2022-07-22T00:24:06;100749.63;;;22.46;69.87
72120;BME280;59993;53.052;18.576;2022-07-22T00:26:32;100747.38;;;22.49;69.81
72120;BME280;59993;53.052;18.576;2022-07-22T00:28:57;100755.66;;;22.48;70.02
72120;BME280;59993;53.052;18.576;2022-07-22T00:31:23;100753.25;;;22.38;70.48
72120;BME280;59993;53.052;18.576;2022-07-22T00:33:49;100752.88;;;22.41;70.48
72120;BME280;59993;53.052;18.576;2022-07-22T00:36:14;100746.25;;;22.44;70.71
72120;BME280;59993;53.052;18.576;2022-07-22T00:38:40;100758.91;;;22.43;70.45
72120;BME280;59993;53.052;18.576;2022-07-22T00:41:05;100748.75;;;22.45;70.64
72120;BME280;59993;53.052;18.576;2022-07-22T00:44:00;100752.19;;;22.39;70.83
72120;BME280;59993;53.052;18.576;2022-07-22T00:46:27;100743.47;;;22.29;71.75
72120;BME280;59993;53.052;18.576;2022-07-22T00:48:53;100747.69;;;22.31;71.18
72120;BME280;59993;53.052;18.576;2022-07-22T00:51:21;100739.06;;;22.36;71.58
72120;BME280;59993;53.052;18.576;2022-07-22T00:53:47;100743.16;;;22.32;71.55
72120;BME280;59993;53.052;18.576;2022-07-22T00:56:14;100736.41;;;22.28;71.55
72120;BME280;59993;53.052;18.576;2022-07-22T00:58:40;100741.47;;;22.31;71.49
72120;BME280;59993;53.052;18.576;2022-07-22T01:01:06;100739.66;;;22.23;72.27
72120;BME280;59993;53.052;18.576;2022-07-22T01:03:32;100742.22;;;22.16;72.51
72120;BME280;59993;53.052;18.576;2022-07-22T01:05:57;100752.19;;;22.16;72.32
72120;BME280;59993;53.052;18.576;2022-07-22T01:08:23;100742.28;;;22.08;72.68
72120;BME280;59993;53.052;18.576;2022-07-22T01:10:49;100735.09;;;22.00;72.90
72120;BME280;59993;53.052;18.576;2022-07-22T01:13:15;100743.47;;;22.06;72.60
72120;BME280;59993;53.052;18.576;2022-07-22T01:15:40;100739.72;;;21.92;73.25
72120;BME280;59993;53.052;18.576;2022-07-22T01:18:06;100735.13;;;21.92;73.19
72120;BME280;59993;53.052;18.576;2022-07-22T01:20:31;100736.53;;;21.88;73.40
72120;BME280;59993;53.052;18.576;2022-07-22T01:22:57;100736.03;;;21.85;74.31
72120;BME280;59993;53.052;18.576;2022-07-22T01:25:23;100731.50;;;21.85;73.70
72120;BME280;59993;53.052;18.576;2022-07-22T01:27:48;100738.81;;;21.76;74.07
72120;BME280;59993;53.052;18.576;2022-07-22T01:30:14;100734.94;;;21.71;74.56
72120;BME280;59993;53.052;18.576;2022-07-22T01:32:39;100740.59;;;21.61;75.19
72120;BME280;59993;53.052;18.576;2022-07-22T01:35:05;100739.38;;;21.63;75.49
72120;BME280;59993;53.052;18.576;2022-07-22T01:37:34;100738.06;;;21.59;75.59
72120;BME280;59993;53.052;18.576;2022-07-22T01:39:59;100739.59;;;21.54;75.52
72120;BME280;59993;53.052;18.576;2022-07-22T01:42:25;100753.59;;;21.49;75.85
72120;BME280;59993;53.052;18.576;2022-07-22T01:44:51;100750.44;;;21.37;77.14
72120;BME280;59993;53.052;18.576;2022-07-22T01:47:16;100750.44;;;21.37;76.88
72120;BME280;59993;53.052;18.576;2022-07-22T01:49:42;100756.16;;;21.51;76.45
72120;BME280;59993;53.052;18.576;2022-07-22T01:52:07;100753.44;;;21.51;75.75
72120;BME280;59993;53.052;18.576;2022-07-22T01:54:33;100758.69;;;21.36;76.68
72120;BME280;59993;53.052;18.576;2022-07-22T01:56:58;100756.22;;;21.26;77.47
72120;BME280;59993;53.052;18.576;2022-07-22T01:59:24;100760.22;;;21.38;76.54
72120;BME280;59993;53.052;18.576;2022-07-22T02:01:50;100765.31;;;21.25;77.52
72120;BME280;59993;53.052;18.576;2022-07-22T02:04:15;100772.06;;;21.21;77.75
72120;BME280;59993;53.052;18.576;2022-07-22T02:06:40;100770.72;;;21.25;77.78
72120;BME280;59993;53.052;18.576;2022-07-22T02:09:06;100774.81;;;21.12;78.57
72120;BME280;59993;53.052;18.576;2022-07-22T02:11:33;100782.19;;;21.19;77.33
72120;BME280;59993;53.052;18.576;2022-07-22T02:13:58;100790.97;;;21.12;77.97
72120;BME280;59993;53.052;18.576;2022-07-22T02:16:24;100786.09;;;21.08;77.93
72120;BME280;59993;53.052;18.576;2022-07-22T02:18:50;100793.38;;;21.07;78.23
72120;BME280;59993;53.052;18.576;2022-07-22T02:21:16;100787.78;;;21.09;78.20
72120;BME280;59993;53.052;18.576;2022-07-22T02:23:41;100791.66;;;21.06;77.98
72120;BME280;59993;53.052;18.576;2022-07-22T02:26:07;100788.97;;;21.06;77.86
72120;BME280;59993;53.052;18.576;2022-07-22T02:28:32;100781.94;;;20.97;78.26
72120;BME280;59993;53.052;18.576;2022-07-22T02:30:58;100787.81;;;21.01;78.50
72120;BME280;59993;53.052;18.576;2022-07-22T02:33:24;100795.06;;;20.92;79.00
72120;BME280;59993;53.052;18.576;2022-07-22T02:35:49;100786.94;;;21.08;77.74
72120;BME280;59993;53.052;18.576;2022-07-22T02:38:15;100799.75;;;21.06;77.71
72120;BME280;59993;53.052;18.576;2022-07-22T02:40:40;100802.44;;;21.06;78.29
72120;BME280;59993;53.052;18.576;2022-07-22T02:43:06;100805.47;;;21.11;78.05
72120;BME280;59993;53.052;18.576;2022-07-22T02:45:32;100804.28;;;21.14;77.42
72120;BME280;59993;53.052;18.576;2022-07-22T02:47:58;100804.94;;;21.16;77.45
72120;BME280;59993;53.052;18.576;2022-07-22T02:50:23;100812.50;;;21.21;77.51
72120;BME280;59993;53.052;18.576;2022-07-22T02:52:50;100815.41;;;21.11;77.72
72120;BME280;59993;53.052;18.576;2022-07-22T02:55:15;100806.81;;;21.16;77.13
72120;BME280;59993;53.052;18.576;2022-07-22T02:57:41;100806.81;;;21.16;77.43
72120;BME280;59993;53.052;18.576;2022-07-22T03:00:08;100810.84;;;21.20;76.77
72120;BME280;59993;53.052;18.576;2022-07-22T03:02:35;100806.13;;;21.22;76.94
72120;BME280;59993;53.052;18.576;2022-07-22T03:05:02;100800.91;;;21.20;77.48
72120;BME280;59993;53.052;18.576;2022-07-22T03:07:27;100802.41;;;21.23;77.21
72120;BME280;59993;53.052;18.576;2022-07-22T03:09:53;100808.63;;;21.23;77.08
72120;BME280;59993;53.052;18.576;2022-07-22T03:12:18;100801.56;;;21.22;77.14
72120;BME280;59993;53.052;18.576;2022-07-22T03:14:44;100800.38;;;21.25;77.12
72120;BME280;59993;53.052;18.576;2022-07-22T03:17:09;100791.28;;;21.26;76.32
72120;BME280;59993;53.052;18.576;2022-07-22T03:19:35;100791.59;;;21.31;75.85
72120;BME280;59993;53.052;18.576;2022-07-22T03:22:00;100788.19;;;21.37;75.74
72120;BME280;59993;53.052;18.576;2022-07-22T03:24:26;100791.56;;;21.39;75.47
72120;BME280;59993;53.052;18.576;2022-07-22T03:26:51;100794.41;;;21.38;76.09
72120;BME280;59993;53.052;18.576;2022-07-22T03:29:17;100800.31;;;21.41;76.20
72120;BME280;59993;53.052;18.576;2022-07-22T03:31:42;100794.59;;;21.36;75.70
72120;BME280;59993;53.052;18.576;2022-07-22T03:34:08;100798.81;;;21.39;75.80
72120;BME280;59993;53.052;18.576;2022-07-22T03:36:33;100803.50;;;21.45;75.49
72120;BME280;59993;53.052;18.576;2022-07-22T03:38:59;100805.38;;;21.44;74.99
72120;BME280;59993;53.052;18.576;2022-07-22T03:41:24;100801.81;;;21.52;74.61
72120;BME280;59993;53.052;18.576;2022-07-22T03:43:50;100814.47;;;21.52;74.56
72120;BME280;59993;53.052;18.576;2022-07-22T03:46:15;100821.53;;;21.53;74.18
72120;BME280;59993;53.052;18.576;2022-07-22T03:48:41;100809.75;;;21.54;74.35
72120;BME280;59993;53.052;18.576;2022-07-22T03:51:06;100825.22;;;21.60;74.18
72120;BME280;59993;53.052;18.576;2022-07-22T03:53:32;100827.22;;;21.66;73.89
72120;BME280;59993;53.052;18.576;2022-07-22T03:55:58;100825.03;;;21.70;73.85
72120;BME280;59993;53.052;18.576;2022-07-22T03:58:24;100822.16;;;21.71;73.13
72120;BME280;59993;53.052;18.576;2022-07-22T04:00:52;100822.47;;;21.68;73.04
72120;BME280;59993;53.052;18.576;2022-07-22T04:03:17;100826.84;;;21.77;72.64
72120;BME280;59993;53.052;18.576;2022-07-22T04:05:43;100832.25;;;21.77;72.48
72120;BME280;59993;53.052;18.576;2022-07-22T04:08:09;100834.41;;;21.82;71.59
72120;BME280;59993;53.052;18.576;2022-07-22T04:10:34;100839.94;;;21.89;71.43
72120;BME280;59993;53.052;18.576;2022-07-22T04:13:00;100832.63;;;21.97;71.60
72120;BME280;59993;53.052;18.576;2022-07-22T04:15:25;100826.03;;;22.00;71.17
72120;BME280;59993;53.052;18.576;2022-07-22T04:17:51;100816.25;;;21.99;70.94
72120;BME280;59993;53.052;18.576;2022-07-22T04:20:16;100813.22;;;22.02;70.38
72120;BME280;59993;53.052;18.576;2022-07-22T04:22:42;100807.44;;;22.05;69.57
72120;BME280;59993;53.052;18.576;2022-07-22T04:25:08;100810.75;;;22.15;69.17
72120;BME280;59993;53.052;18.576;2022-07-22T04:27:33;100806.66;;;22.19;68.40
72120;BME280;59993;53.052;18.576;2022-07-22T04:29:59;100806.31;;;22.23;67.85
72120;BME280;59993;53.052;18.576;2022-07-22T04:32:24;100800.00;;;22.30;67.50
72120;BME280;59993;53.052;18.576;2022-07-22T04:34:50;100807.25;;;22.38;66.92
72120;BME280;59993;53.052;18.576;2022-07-22T04:37:16;100806.53;;;22.44;66.93
72120;BME280;59993;53.052;18.576;2022-07-22T04:39:41;100815.38;;;22.53;66.82
72120;BME280;59993;53.052;18.576;2022-07-22T04:42:07;100814.19;;;22.56;66.55
72120;BME280;59993;53.052;18.576;2022-07-22T04:44:32;100818.81;;;22.70;66.19
72120;BME280;59993;53.052;18.576;2022-07-22T04:46:58;100816.28;;;22.68;66.03
72120;BME280;59993;53.052;18.576;2022-07-22T04:49:23;100802.50;;;22.78;65.80
72120;BME280;59993;53.052;18.576;2022-07-22T04:51:51;100807.91;;;22.78;65.76
72120;BME280;59993;53.052;18.576;2022-07-22T04:54:16;100806.06;;;22.94;65.77
72120;BME280;59993;53.052;18.576;2022-07-22T04:56:42;100809.66;;;23.09;65.26
72120;BME280;59993;53.052;18.576;2022-07-22T04:59:08;100815.63;;;23.19;65.07
72120;BME280;59993;53.052;18.576;2022-07-22T05:01:33;100811.81;;;23.29;64.14
72120;BME280;59993;53.052;18.576;2022-07-22T05:03:59;100814.81;;;23.34;64.42
72120;BME280;59993;53.052;18.576;2022-07-22T05:06:24;100806.31;;;23.37;64.33
72120;BME280;59993;53.052;18.576;2022-07-22T05:08:50;100817.66;;;23.47;64.00
72120;BME280;59993;53.052;18.576;2022-07-22T05:11:15;100820.47;;;23.54;64.08
72120;BME280;59993;53.052;18.576;2022-07-22T05:13:40;100820.00;;;23.65;64.26
72120;BME280;59993;53.052;18.576;2022-07-22T05:16:07;100817.63;;;23.77;63.45
72120;BME280;59993;53.052;18.576;2022-07-22T05:18:32;100821.47;;;23.83;63.58
72120;BME280;59993;53.052;18.576;2022-07-22T05:20:58;100830.34;;;23.76;63.04
72120;BME280;59993;53.052;18.576;2022-07-22T05:23:24;100820.34;;;23.92;62.57
72120;BME280;59993;53.052;18.576;2022-07-22T05:25:49;100821.75;;;23.73;62.92
72120;BME280;59993;53.052;18.576;2022-07-22T05:28:15;100822.59;;;23.73;63.68
72120;BME280;59993;53.052;18.576;2022-07-22T05:30:40;100813.81;;;23.86;62.85
72120;BME280;59993;53.052;18.576;2022-07-22T05:33:06;100828.63;;;24.05;62.96
72120;BME280;59993;53.052;18.576;2022-07-22T05:35:31;100832.50;;;24.39;61.83
72120;BME280;59993;53.052;18.576;2022-07-22T05:37:57;100847.41;;;24.50;61.28
72120;BME280;59993;53.052;18.576;2022-07-22T05:40:22;100858.06;;;24.52;62.06
72120;BME280;59993;53.052;18.576;2022-07-22T05:42:48;100858.09;;;24.37;62.51
72120;BME280;59993;53.052;18.576;2022-07-22T05:45:13;100865.75;;;24.70;61.76
72120;BME280;59993;53.052;18.576;2022-07-22T05:47:38;100871.66;;;25.01;61.53
72120;BME280;59993;53.052;18.576;2022-07-22T05:50:04;100866.00;;;24.53;62.35
72120;BME280;59993;53.052;18.576;2022-07-22T05:52:30;100865.88;;;24.83;62.19
72120;BME280;59993;53.052;18.576;2022-07-22T05:54:58;100876.56;;;25.13;61.33
72120;BME280;59993;53.052;18.576;2022-07-22T05:57:24;100899.44;;;24.82;61.75
72120;BME280;59993;53.052;18.576;2022-07-22T05:59:49;100908.09;;;24.92;60.86
72120;BME280;59993;53.052;18.576;2022-07-22T06:02:15;100920.38;;;25.16;61.17
72120;BME280;59993;53.052;18.576;2022-07-22T06:04:40;100937.00;;;25.07;60.63
72120;BME280;59993;53.052;18.576;2022-07-22T06:07:06;100942.53;;;24.92;61.21
72120;BME280;59993;53.052;18.576;2022-07-22T06:09:31;100958.50;;;25.08;61.76
72120;BME280;59993;53.052;18.576;2022-07-22T06:11:57;100949.81;;;25.13;61.14
72120;BME280;59993;53.052;18.576;2022-07-22T06:14:22;100964.97;;;25.07;61.37
72120;BME280;59993;53.052;18.576;2022-07-22T06:16:48;100955.47;;;25.18;61.77
72120;BME280;59993;53.052;18.576;2022-07-22T06:19:13;100954.44;;;24.97;61.99
72120;BME280;59993;53.052;18.576;2022-07-22T06:21:39;100966.59;;;24.43;71.48
72120;BME280;59993;53.052;18.576;2022-07-22T06:24:04;100974.69;;;23.39;80.13
72120;BME280;59993;53.052;18.576;2022-07-22T06:26:30;100984.50;;;22.94;82.69
72120;BME280;59993;53.052;18.576;2022-07-22T06:28:55;100990.38;;;22.74;83.05
72120;BME280;59993;53.052;18.576;2022-07-22T06:31:21;100969.34;;;22.38;86.03
72120;BME280;59993;53.052;18.576;2022-07-22T06:33:46;100946.19;;;22.27;85.99
72120;BME280;59993;53.052;18.576;2022-07-22T06:36:12;100949.06;;;22.26;87.75
72120;BME280;59993;53.052;18.576;2022-07-22T06:38:39;100941.81;;;22.34;87.22
72120;BME280;59993;53.052;18.576;2022-07-22T06:41:05;100943.03;;;22.32;87.73
72120;BME280;59993;53.052;18.576;2022-07-22T06:43:30;100939.22;;;22.10;88.71
72120;BME280;59993;53.052;18.576;2022-07-22T06:45:56;100926.38;;;22.12;87.57
72120;BME280;59993;53.052;18.576;2022-07-22T06:48:22;100925.13;;;21.91;88.47
72120;BME280;59993;53.052;18.576;2022-07-22T06:50:47;100920.69;;;21.98;91.81
72120;BME280;59993;53.052;18.576;2022-07-22T06:53:13;100918.94;;;22.14;91.09
72120;BME280;59993;53.052;18.576;2022-07-22T06:55:38;100904.41;;;21.75;90.29
72120;BME280;59993;53.052;18.576;2022-07-22T06:58:04;100902.72;;;21.82;91.95
72120;BME280;59993;53.052;18.576;2022-07-22T07:00:29;100891.25;;;21.80;92.93
72120;BME280;59993;53.052;18.576;2022-07-22T07:03:00;100877.13;;;21.62;94.55
72120;BME280;59993;53.052;18.576;2022-07-22T07:05:27;100873.13;;;21.58;93.93
72120;BME280;59993;53.052;18.576;2022-07-22T07:07:54;100863.34;;;21.48;94.80
72120;BME280;59993;53.052;18.576;2022-07-22T07:10:20;100839.25;;;21.39;95.56
72120;BME280;59993;53.052;18.576;2022-07-22T07:12:45;100794.31;;;21.15;97.58
72120;BME280;59993;53.052;18.576;2022-07-22T07:15:11;100808.47;;;21.25;97.67
72120;BME280;59993;53.052;18.576;2022-07-22T07:17:37;100833.91;;;21.30;97.26
72120;BME280;59993;53.052;18.576;2022-07-22T07:20:03;100833.72;;;21.32;95.90
72120;BME280;59993;53.052;18.576;2022-07-22T07:22:29;100816.31;;;21.43;96.22
72120;BME280;59993;53.052;18.576;2022-07-22T07:24:55;100810.75;;;21.44;96.42
72120;BME280;59993;53.052;18.576;2022-07-22T07:27:20;100825.59;;;21.48;97.34
72120;BME280;59993;53.052;18.576;2022-07-22T07:29:46;100835.75;;;21.30;97.21
72120;BME280;59993;53.052;18.576;2022-07-22T07:32:11;100848.25;;;21.15;97.20
72120;BME280;59993;53.052;18.576;2022-07-22T07:34:37;100855.47;;;21.22;97.03
72120;BME280;59993;53.052;18.576;2022-07-22T07:37:03;100858.16;;;21.30;96.56
72120;BME280;59993;53.052;18.576;2022-07-22T07:39:29;100856.16;;;21.16;96.67
72120;BME280;59993;53.052;18.576;2022-07-22T07:41:54;100866.44;;;21.29;96.58
72120;BME280;59993;53.052;18.576;2022-07-22T07:44:20;100856.59;;;21.53;95.89
72120;BME280;59993;53.052;18.576;2022-07-22T07:46:45;100859.13;;;21.54;96.08
72120;BME280;59993;53.052;18.576;2022-07-22T07:49:11;100874.78;;;21.67;96.07
72120;BME280;59993;53.052;18.576;2022-07-22T07:51:36;100879.97;;;21.77;94.30
72120;BME280;59993;53.052;18.576;2022-07-22T07:54:02;100883.00;;;21.74;93.85
72120;BME280;59993;53.052;18.576;2022-07-22T07:56:28;100887.09;;;22.01;92.79
72120;BME280;59993;53.052;18.576;2022-07-22T07:58:53;100881.56;;;22.26;91.42
72120;BME280;59993;53.052;18.576;2022-07-22T08:01:19;100875.16;;;22.27;91.68
72120;BME280;59993;53.052;18.576;2022-07-22T08:03:44;100876.34;;;22.56;90.00
72120;BME280;59993;53.052;18.576;2022-07-22T08:06:10;100877.34;;;22.31;91.67
72120;BME280;59993;53.052;18.576;2022-07-22T08:08:35;100872.16;;;22.22;91.09
72120;BME280;59993;53.052;18.576;2022-07-22T08:11:01;100876.50;;;22.23;89.26
72120;BME280;59993;53.052;18.576;2022-07-22T08:13:26;100877.78;;;22.43;88.80
72120;BME280;59993;53.052;18.576;2022-07-22T08:15:52;100887.63;;;22.59;89.00
72120;BME280;59993;53.052;18.576;2022-07-22T08:18:18;100880.81;;;22.86;85.86
72120;BME280;59993;53.052;18.576;2022-07-22T08:20:43;100890.03;;;23.15;85.57
72120;BME280;59993;53.052;18.576;2022-07-22T08:23:09;100887.72;;;24.02;84.78
72120;BME280;59993;53.052;18.576;2022-07-22T08:25:34;100887.34;;;23.15;83.01
72120;BME280;59993;53.052;18.576;2022-07-22T08:28:00;100889.59;;;23.27;83.06
72120;BME280;59993;53.052;18.576;2022-07-22T08:30:26;100892.50;;;24.00;81.88
72120;BME280;59993;53.052;18.576;2022-07-22T08:32:55;100887.19;;;23.76;77.29
72120;BME280;59993;53.052;18.576;2022-07-22T08:35:21;100891.09;;;23.74;79.62
72120;BME280;59993;53.052;18.576;2022-07-22T08:37:46;100885.06;;;23.72;78.91
72120;BME280;59993;53.052;18.576;2022-07-22T08:40:14;100892.88;;;23.97;77.86
72120;BME280;59993;53.052;18.576;2022-07-22T08:42:42;100894.81;;;24.18;77.15
72120;BME280;59993;53.052;18.576;2022-07-22T08:45:09;100902.38;;;24.22;73.91
72120;BME280;59993;53.052;18.576;2022-07-22T08:47:34;100896.72;;;24.39;71.67
72120;BME280;59993;53.052;18.576;2022-07-22T08:50:00;100902.16;;;24.60;71.23
72120;BME280;59993;53.052;18.576;2022-07-22T08:52:26;100910.66;;;24.57;67.05
72120;BME280;59993;53.052;18.576;2022-07-22T08:54:52;100901.44;;;24.95;65.86
72120;BME280;59993;53.052;18.576;2022-07-22T08:57:18;100908.28;;;25.41;65.33
72120;BME280;59993;53.052;18.576;2022-07-22T09:02:15;100906.63;;;25.18;63.91
72120;BME280;59993;53.052;18.576;2022-07-22T09:07:29;100910.81;;;25.49;61.90
72120;BME280;59993;53.052;18.576;2022-07-22T09:09:55;100911.94;;;25.05;62.56
72120;BME280;59993;53.052;18.576;2022-07-22T09:12:21;100917.72;;;25.23;63.81
72120;BME280;59993;53.052;18.576;2022-07-22T09:14:49;100911.63;;;25.43;61.09
72120;BME280;59993;53.052;18.576;2022-07-22T09:17:35;100915.69;;;25.95;61.64
72120;BME280;59993;53.052;18.576;2022-07-22T09:20:03;100906.00;;;25.44;60.40
72120;BME280;59993;53.052;18.576;2022-07-22T09:22:41;100915.22;;;25.50;60.66
72120;BME280;59993;53.052;18.576;2022-07-22T09:25:35;100898.72;;;25.45;60.83
72120;BME280;59993;53.052;18.576;2022-07-22T09:30:34;100904.47;;;25.70;60.61
72120;BME280;59993;53.052;18.576;2022-07-22T09:33:00;100903.88;;;25.75;60.02
72120;BME280;59993;53.052;18.576;2022-07-22T09:35:27;100902.38;;;25.65;60.62
72120;BME280;59993;53.052;18.576;2022-07-22T09:38:00;100906.19;;;25.78;59.80
72120;BME280;59993;53.052;18.576;2022-07-22T09:40:28;100896.06;;;25.58;58.82
72120;BME280;59993;53.052;18.576;2022-07-22T09:43:00;100904.56;;;25.83;58.58
72120;BME280;59993;53.052;18.576;2022-07-22T09:45:29;100904.53;;;25.77;57.95
72120;BME280;59993;53.052;18.576;2022-07-22T09:48:07;100898.13;;;26.53;60.05
72120;BME280;59993;53.052;18.576;2022-07-22T09:51:14;100899.69;;;26.14;57.89
72120;BME280;59993;53.052;18.576;2022-07-22T09:53:45;100894.34;;;26.40;58.35
72120;BME280;59993;53.052;18.576;2022-07-22T09:56:23;100893.34;;;27.08;58.34
72120;BME280;59993;53.052;18.576;2022-07-22T09:58:48;100906.66;;;26.43;57.13
72120;BME280;59993;53.052;18.576;2022-07-22T10:01:14;100903.06;;;26.29;56.41
72120;BME280;59993;53.052;18.576;2022-07-22T10:03:44;100896.19;;;26.40;55.93
72120;BME280;59993;53.052;18.576;2022-07-22T10:06:13;100907.75;;;26.62;56.02
72120;BME280;59993;53.052;18.576;2022-07-22T10:08:47;100902.28;;;26.55;56.78
72120;BME280;59993;53.052;18.576;2022-07-22T10:11:16;100906.47;;;26.65;55.63
72120;BME280;59993;53.052;18.576;2022-07-22T10:13:42;100899.84;;;26.67;54.84
72120;BME280;59993;53.052;18.576;2022-07-22T10:16:17;100902.94;;;26.64;55.84
72120;BME280;59993;53.052;18.576;2022-07-22T10:18:45;100902.72;;;26.66;55.74
72120;BME280;59993;53.052;18.576;2022-07-22T10:21:18;100892.31;;;27.09;54.62
72120;BME280;59993;53.052;18.576;2022-07-22T10:27:12;100891.03;;;27.25;55.27
72120;BME280;59993;53.052;18.576;2022-07-22T10:29:39;100898.19;;;26.93;54.82
72120;BME280;59993;53.052;18.576;2022-07-22T10:34:43;100898.19;;;26.93;54.87
72120;BME280;59993;53.052;18.576;2022-07-22T10:40:17;100886.69;;;28.03;51.61
72120;BME280;59993;53.052;18.576;2022-07-22T10:45:37;100890.63;;;27.22;52.78
72120;BME280;59993;53.052;18.576;2022-07-22T10:48:05;100885.34;;;27.60;51.12
72120;BME280;59993;53.052;18.576;2022-07-22T10:53:02;100881.63;;;27.41;51.61
72120;BME280;59993;53.052;18.576;2022-07-22T10:55:28;100882.75;;;28.31;51.89
72120;BME280;59993;53.052;18.576;2022-07-22T10:57:54;100878.84;;;28.20;52.12
72120;BME280;59993;53.052;18.576;2022-07-22T11:00:20;100886.69;;;27.90;52.77
72120;BME280;59993;53.052;18.576;2022-07-22T11:02:46;100883.31;;;28.08;51.57
72120;BME280;59993;53.052;18.576;2022-07-22T11:05:12;100887.13;;;27.87;49.82
72120;BME280;59993;53.052;18.576;2022-07-22T11:07:44;100889.66;;;27.81;50.07
72120;BME280;59993;53.052;18.576;2022-07-22T11:10:15;100885.41;;;27.34;50.65
72120;BME280;59993;53.052;18.576;2022-07-22T11:12:42;100882.00;;;27.58;51.02
72120;BME280;59993;53.052;18.576;2022-07-22T11:15:08;100878.97;;;27.87;50.41
72120;BME280;59993;53.052;18.576;2022-07-22T11:17:35;100874.25;;;27.62;51.02
72120;BME280;59993;53.052;18.576;2022-07-22T11:20:03;100878.84;;;27.68;50.43
72120;BME280;59993;53.052;18.576;2022-07-22T11:22:30;100862.75;;;28.05;50.87
72120;BME280;59993;53.052;18.576;2022-07-22T11:24:56;100867.44;;;27.84;51.82
72120;BME280;59993;53.052;18.576;2022-07-22T11:27:21;100871.19;;;27.97;51.18
72120;BME280;59993;53.052;18.576;2022-07-22T11:29:48;100866.66;;;27.71;51.49
72120;BME280;59993;53.052;18.576;2022-07-22T11:32:14;100863.97;;;28.16;51.78
72120;BME280;59993;53.052;18.576;2022-07-22T11:34:42;100850.31;;;28.48;50.99
72120;BME280;59993;53.052;18.576;2022-07-22T11:37:11;100855.22;;;28.39;50.27
72120;BME280;59993;53.052;18.576;2022-07-22T11:39:37;100848.09;;;27.99;50.28
72120;BME280;59993;53.052;18.576;2022-07-22T11:42:03;100844.22;;;28.21;50.65
72120;BME280;59993;53.052;18.576;2022-07-22T11:44:31;100841.34;;;28.98;49.13
72120;BME280;59993;53.052;18.576;2022-07-22T11:46:58;100836.22;;;28.58;49.75
72120;BME280;59993;53.052;18.576;2022-07-22T11:49:25;100840.56;;;29.34;49.24
72120;BME280;59993;53.052;18.576;2022-07-22T11:51:51;100843.94;;;29.55;47.69
72120;BME280;59993;53.052;18.576;2022-07-22T11:54:17;100841.81;;;29.13;48.38
72120;BME280;59993;53.052;18.576;2022-07-22T11:56:43;100836.84;;;29.29;47.34
72120;BME280;59993;53.052;18.576;2022-07-22T11:59:13;100839.66;;;29.59;48.38
72120;BME280;59993;53.052;18.576;2022-07-22T12:01:39;100836.09;;;29.40;47.83
72120;BME280;59993;53.052;18.576;2022-07-22T12:04:07;100836.47;;;29.44;47.80
72120;BME280;59993;53.052;18.576;2022-07-22T12:06:34;100833.75;;;29.25;47.17
72120;BME280;59993;53.052;18.576;2022-07-22T12:09:16;100833.06;;;29.30;47.20
72120;BME280;59993;53.052;18.576;2022-07-22T12:11:47;100831.25;;;29.42;47.66
72120;BME280;59993;53.052;18.576;2022-07-22T12:14:18;100826.72;;;29.11;47.16
72120;BME280;59993;53.052;18.576;2022-07-22T12:17:04;100825.56;;;29.00;47.61
72120;BME280;59993;53.052;18.576;2022-07-22T12:19:32;100818.31;;;28.68;48.68
72120;BME280;59993;53.052;18.576;2022-07-22T12:22:07;100832.94;;;28.74;48.82
72120;BME280;59993;53.052;18.576;2022-07-22T12:24:34;100829.47;;;28.28;49.38
72120;BME280;59993;53.052;18.576;2022-07-22T12:27:09;100836.47;;;28.17;49.71
72120;BME280;59993;53.052;18.576;2022-07-22T12:32:04;100839.28;;;28.04;49.78
72120;BME280;59993;53.052;18.576;2022-07-22T12:34:41;100832.88;;;28.24;49.72
72120;BME280;59993;53.052;18.576;2022-07-22T12:40:03;100821.31;;;28.28;49.17
72120;BME280;59993;53.052;18.576;2022-07-22T12:42:35;100816.88;;;28.34;49.36
72120;BME280;59993;53.052;18.576;2022-07-22T12:45:12;100829.34;;;28.48;49.31
72120;BME280;59993;53.052;18.576;2022-07-22T12:50:28;100824.59;;;29.13;48.92
72120;BME280;59993;53.052;18.576;2022-07-22T12:53:13;100825.75;;;29.60;47.07
72120;BME280;59993;53.052;18.576;2022-07-22T12:55:47;100814.50;;;29.13;48.13
72120;BME280;59993;53.052;18.576;2022-07-22T12:58:15;100825.19;;;29.40;47.64
72120;BME280;59993;53.052;18.576;2022-07-22T13:00:44;100818.06;;;29.20;47.99
72120;BME280;59993;53.052;18.576;2022-07-22T13:03:10;100811.34;;;29.16;47.99
72120;BME280;59993;53.052;18.576;2022-07-22T13:05:36;100813.97;;;29.30;47.88
72120;BME280;59993;53.052;18.576;2022-07-22T13:08:02;100810.97;;;29.50;47.92
72120;BME280;59993;53.052;18.576;2022-07-22T13:10:28;100812.13;;;29.23;47.10